Time;durP1;ratioP1;P1;durP2;ratioP2;P2;SDS_P1;SDS_P2;PMS_P1;PMS_P2;Temp;Humidity;BMP_temperature;BMP_pressure;BME280_temperature;BME280_humidity;BME280_pressure;Samples;Min_cycle;Max_cycle;Signal;HPM_P1;HPM_P2
2021/12/12 00:00:37;;;;;;;25.80;13.47;;;;;;;8.93;93.80;100650.24;126338;1099;104195;-78
2021/12/12 00:03:21;;;;;;;28.00;13.73;;;;;;;8.94;93.34;100659.86;126322;1099;104182;-81
2021/12/12 00:05:57;;;;;;;27.53;13.17;;;;;;;8.94;93.67;100655.55;126264;1099;118878;-81
2021/12/12 00:08:31;;;;;;;25.63;12.00;;;;;;;8.94;93.22;100637.23;126325;1099;104300;-80
2021/12/12 00:11:07;;;;;;;28.60;13.15;;;;;;;8.95;93.24;100645.96;126369;1099;104197;-80
2021/12/12 00:13:42;;;;;;;25.27;12.40;;;;;;;8.96;93.13;100655.58;126337;1097;104265;-79
2021/12/12 00:16:14;;;;;;;23.43;11.40;;;;;;;8.96;93.57;100651.27;126269;1099;104322;-79
2021/12/12 00:18:47;;;;;;;25.13;10.33;;;;;;;8.97;93.07;100644.30;126269;1099;104262;-80
2021/12/12 00:21:20;;;;;;;27.70;10.27;;;;;;;8.97;93.38;100653.03;126331;1099;104431;-80
2021/12/12 00:23:52;;;;;;;25.27;10.03;;;;;;;8.97;93.63;100655.65;126339;1099;104309;-81
2021/12/12 00:26:24;;;;;;;25.47;10.13;;;;;;;8.98;92.99;100646.98;126309;1099;104224;-79
2021/12/12 00:28:56;;;;;;;24.77;10.00;;;;;;;8.98;93.24;100644.36;126343;1099;104178;-80
2021/12/12 00:31:30;;;;;;;21.77;9.87;;;;;;;8.99;93.31;100650.48;126345;1099;104136;-80
2021/12/12 00:34:02;;;;;;;25.23;10.87;;;;;;;9.02;93.35;100644.50;126258;1099;104447;-82
2021/12/12 00:36:34;;;;;;;26.07;11.83;;;;;;;9.02;93.89;100645.38;126289;1099;104143;-79
2021/12/12 00:39:15;;;;;;;26.13;13.83;;;;;;;9.04;93.14;100638.52;126251;1098;104172;-80
2021/12/12 00:41:57;;;;;;;30.73;16.27;;;;;;;9.07;93.07;100645.59;126302;1098;104245;-79
2021/12/12 00:44:33;;;;;;;34.27;16.10;;;;;;;9.08;93.05;100632.56;126307;1098;104213;-81
2021/12/12 00:47:08;;;;;;;26.37;16.13;;;;;;;9.08;93.68;100637.80;126269;1099;107275;-79
2021/12/12 00:49:42;;;;;;;31.40;16.03;;;;;;;9.09;93.74;100636.10;126320;1099;104248;-79
2021/12/12 00:52:17;;;;;;;30.03;15.43;;;;;;;9.09;93.82;100634.37;126304;1099;104195;-80
2021/12/12 00:54:51;;;;;;;27.50;14.07;;;;;;;9.10;93.76;100632.63;126336;1099;104172;-80
2021/12/12 00:57:23;;;;;;;24.87;13.20;;;;;;;9.12;93.22;100631.88;126291;1099;118853;-80
2021/12/12 00:59:56;;;;;;;27.70;12.63;;;;;;;9.13;93.84;100632.77;126287;1099;104146;-79
2021/12/12 01:02:30;;;;;;;25.80;12.67;;;;;;;9.13;93.73;100624.91;126263;1099;104198;-80
2021/12/12 01:05:06;;;;;;;28.07;12.10;;;;;;;9.13;93.13;100620.59;126318;1099;105462;-80
2021/12/12 01:07:41;;;;;;;28.53;12.87;;;;;;;9.15;93.57;100618.93;126330;1098;104261;-80
2021/12/12 01:10:19;;;;;;;25.53;12.73;;;;;;;9.16;93.72;100618.11;126327;1099;104133;-81
2021/12/12 01:12:51;;;;;;;26.27;9.83;;;;;;;9.18;93.83;100615.56;126314;1099;104175;-80
2021/12/12 01:15:30;;;;;;;24.50;10.00;;;;;;;9.18;93.85;100619.06;126324;1099;104159;-81
2021/12/12 01:18:09;;;;;;;24.25;9.95;;;;;;;9.20;93.89;100621.74;126308;1099;111855;-80
2021/12/12 01:20:49;;;;;;;24.93;8.60;;;;;;;9.20;93.91;100615.63;126372;1098;104237;-80
2021/12/12 01:23:28;;;;;;;24.13;8.60;;;;;;;9.20;93.85;100616.51;126299;1099;104239;-80
2021/12/12 01:26:00;;;;;;;19.67;8.00;;;;;;;9.21;93.87;100613.07;126236;1099;104294;-79
2021/12/12 01:28:35;;;;;;;21.80;7.80;;;;;;;9.24;93.25;100620.14;126347;1099;104248;-78
2021/12/12 01:31:15;;;;;;;23.53;7.53;;;;;;;9.24;93.62;100612.29;126402;1099;104136;-79
2021/12/12 01:33:54;;;;;;;20.80;6.87;;;;;;;9.26;93.89;100624.63;126333;1098;104143;-79
2021/12/12 01:36:43;;;;;;;21.97;6.80;;;;;;;9.26;93.83;100624.63;126306;1099;104143;-79
2021/12/12 01:39:17;;;;;;;18.63;6.37;;;;;;;9.27;93.60;100609.80;126309;1099;104140;-81
2021/12/12 01:41:57;;;;;;;21.03;6.83;;;;;;;9.27;94.05;100615.95;126332;1099;104148;-80
2021/12/12 01:44:36;;;;;;;20.63;6.60;;;;;;;9.27;94.20;100623.81;126289;1099;104213;-80
2021/12/12 01:47:13;;;;;;;16.80;5.97;;;;;;;9.26;94.10;100615.89;126262;1098;104219;-81
2021/12/12 01:49:53;;;;;;;19.20;6.40;;;;;;;9.26;94.08;100611.53;126347;1099;104288;-80
2021/12/12 01:52:27;;;;;;;19.13;6.73;;;;;;;9.27;93.65;100615.04;126309;1099;104137;-80
2021/12/12 01:55:05;;;;;;;16.87;6.27;;;;;;;9.24;94.16;100610.59;126299;1099;104525;-80
2021/12/12 01:57:39;;;;;;;20.03;5.73;;;;;;;9.24;94.19;100607.97;126270;1099;105546;-79
2021/12/12 02:00:18;;;;;;;20.13;6.17;;;;;;;9.24;93.70;100596.58;126338;1099;104143;-79
2021/12/12 02:02:50;;;;;;;23.57;6.63;;;;;;;9.24;93.64;100594.88;126318;1099;104284;-81
2021/12/12 02:05:25;;;;;;;18.77;6.73;;;;;;;9.23;93.97;100603.55;126338;1098;104141;-79
2021/12/12 02:08:00;;;;;;;21.87;6.77;;;;;;;9.23;94.27;100598.31;126292;1099;105554;-79
2021/12/12 02:10:37;;;;;;;20.53;6.50;;;;;;;9.24;94.32;100597.49;126202;1099;104166;-79
2021/12/12 02:13:14;;;;;;;20.20;7.70;;;;;;;9.22;93.90;100595.63;126259;1099;104137;-79
2021/12/12 02:15:50;;;;;;;21.73;8.00;;;;;;;9.22;93.87;100601.75;126250;1099;104137;-79
2021/12/12 02:18:28;;;;;;;23.33;7.90;;;;;;;9.24;94.40;100607.05;126187;1099;104175;-79
2021/12/12 02:21:09;;;;;;;22.73;8.23;;;;;;;9.25;93.78;100604.50;126238;1099;104137;-79
2021/12/12 02:24:04;;;;;;;22.17;8.60;;;;;;;9.26;94.50;100601.06;126192;1099;104293;-80
2021/12/12 02:35:21;;;;;;;21.57;7.73;;;;;;;9.31;94.43;100610.00;126343;1099;104207;-79
2021/12/12 02:37:58;;;;;;;26.77;8.40;;;;;;;9.32;94.31;100614.42;126283;1099;104185;-80
2021/12/12 02:40:33;;;;;;;25.63;7.83;;;;;;;9.32;93.98;100617.03;126344;1099;104150;-79
2021/12/12 02:43:26;;;;;;;26.30;8.33;;;;;;;9.34;94.47;100623.22;126251;1099;104374;-80
2021/12/12 02:46:01;;;;;;;22.73;7.77;;;;;;;9.35;94.59;100613.66;126275;1099;104262;-79
2021/12/12 02:48:37;;;;;;;24.63;7.93;;;;;;;9.34;94.15;100617.98;126288;1098;104153;-80
2021/12/12 02:51:13;;;;;;;19.90;7.20;;;;;;;9.35;94.55;100609.31;126335;1099;104147;-79
2021/12/12 02:53:48;;;;;;;24.40;7.53;;;;;;;9.38;94.29;100620.73;126362;1099;104153;-79
2021/12/12 02:56:26;;;;;;;27.13;8.03;;;;;;;9.38;93.99;100612.88;126330;1099;104587;-80
2021/12/12 02:59:00;;;;;;;26.07;8.83;;;;;;;9.40;94.39;100613.86;126227;1099;104248;-79
2021/12/12 03:01:35;;;;;;;21.68;7.37;;;;;;;9.40;94.59;100611.24;126352;1099;104168;-80
2021/12/12 03:04:08;;;;;;;24.37;7.67;;;;;;;9.41;94.13;100608.69;126309;1099;104150;-80
2021/12/12 03:06:43;;;;;;;22.57;7.33;;;;;;;9.42;94.07;100612.19;126303;1099;104140;-79
2021/12/12 03:09:18;;;;;;;21.23;7.60;;;;;;;9.42;94.67;100605.22;126291;1099;104153;-79
2021/12/12 03:11:57;;;;;;;24.80;8.00;;;;;;;9.43;94.59;100613.99;126274;1099;104149;-81
2021/12/12 03:14:32;;;;;;;20.07;7.17;;;;;;;9.43;94.68;100609.63;126349;1099;104169;-80
2021/12/12 03:17:10;;;;;;;26.73;8.87;;;;;;;9.43;94.31;100619.23;126305;1099;104153;-79
2021/12/12 03:19:44;;;;;;;20.03;7.33;;;;;;;9.44;94.68;100613.14;126344;1099;104172;-80
2021/12/12 03:22:16;;;;;;;20.50;7.30;;;;;;;9.42;93.97;100602.59;126352;1099;104259;-80
2021/12/12 03:24:48;;;;;;;17.63;6.40;;;;;;;9.41;94.19;100610.39;126333;1098;104290;-80
2021/12/12 03:27:22;;;;;;;20.60;6.90;;;;;;;9.42;94.21;100612.19;126289;1099;104142;-81
2021/12/12 03:29:57;;;;;;;22.32;6.90;;;;;;;9.40;94.63;100613.86;126222;1099;104285;-79
2021/12/12 03:32:29;;;;;;;19.63;6.40;;;;;;;9.38;94.36;100612.88;126353;1099;104139;-80
2021/12/12 03:35:06;;;;;;;22.43;6.93;;;;;;;9.39;94.71;100614.67;126326;1099;104147;-78
2021/12/12 03:37:40;;;;;;;25.20;6.87;;;;;;;9.38;94.26;100607.64;126280;1099;104149;-80
2021/12/12 03:40:18;;;;;;;28.50;7.45;;;;;;;9.39;94.37;100615.56;126318;1099;104162;-82
2021/12/12 03:42:55;;;;;;;22.67;7.10;;;;;;;9.39;94.65;100617.30;126353;1099;104176;-79
2021/12/12 03:45:28;;;;;;;28.07;7.37;;;;;;;9.39;94.76;100617.30;126334;1099;104156;-79
2021/12/12 03:48:05;;;;;;;21.67;6.80;;;;;;;9.40;94.69;100616.48;126293;1099;104570;-79
2021/12/12 03:50:41;;;;;;;20.40;6.77;;;;;;;9.40;94.59;100616.48;126315;1099;104153;-80
2021/12/12 03:53:14;;;;;;;19.43;7.10;;;;;;;9.40;94.78;100613.86;126347;1097;104143;-80
2021/12/12 03:55:48;;;;;;;22.30;7.30;;;;;;;9.39;94.89;100614.67;126325;1097;104149;-78
2021/12/12 03:58:20;;;;;;;21.52;7.35;;;;;;;9.38;94.98;100616.41;126355;1099;104189;-80
2021/12/12 04:00:56;;;;;;;23.07;6.43;;;;;;;9.39;94.82;100617.30;126287;1099;104721;-79
2021/12/12 04:03:28;;;;;;;25.67;7.10;;;;;;;9.39;94.33;100612.06;126331;1098;104332;-79
2021/12/12 04:06:02;;;;;;;22.50;7.70;;;;;;;9.37;94.32;100618.97;126327;1099;104153;-79
2021/12/12 04:08:37;;;;;;;23.03;7.00;;;;;;;9.34;94.97;100620.60;126324;1098;104140;-79
2021/12/12 04:11:17;;;;;;;26.27;8.30;;;;;;;9.33;94.71;100617.92;126264;1098;104143;-81
2021/12/12 04:13:51;;;;;;;21.17;7.40;;;;;;;9.33;94.70;100626.70;126353;1099;104140;-80
2021/12/12 04:16:25;;;;;;;25.03;7.80;;;;;;;9.32;94.84;100624.89;126331;1099;105068;-81
2021/12/12 04:18:57;;;;;;;25.70;7.87;;;;;;;9.33;94.86;100628.39;126287;1099;104147;-79
2021/12/12 04:21:29;;;;;;;23.13;8.57;;;;;;;9.32;94.09;100618.77;126308;1099;105374;-80
2021/12/12 04:24:01;;;;;;;27.77;9.20;;;;;;;9.32;94.05;100624.89;126363;1099;104146;-80
2021/12/12 04:26:35;;;;;;;25.40;8.80;;;;;;;9.30;94.46;100633.50;126342;1097;104171;-79
2021/12/12 04:29:12;;;;;;;28.33;8.33;;;;;;;9.31;94.16;100630.06;126340;1099;104144;-79
2021/12/12 04:31:48;;;;;;;27.90;8.60;;;;;;;9.30;94.09;100634.42;126265;1099;105626;-80
2021/12/12 04:34:21;;;;;;;23.80;8.27;;;;;;;9.30;94.35;100631.80;126321;1099;104169;-80
2021/12/12 04:36:54;;;;;;;23.60;8.80;;;;;;;9.29;94.36;100635.23;126401;1098;104154;-79
2021/12/12 04:39:29;;;;;;;25.17;9.43;;;;;;;9.27;93.93;100631.66;126326;1099;104252;-81
2021/12/12 04:42:05;;;;;;;24.63;9.20;;;;;;;9.28;93.93;100635.17;126193;1099;104153;-79
2021/12/12 04:44:38;;;;;;;34.60;13.00;;;;;;;9.26;94.25;100642.95;126310;1099;104287;-80
2021/12/12 04:50:18;;;;;;;29.60;12.67;;;;;;;9.16;93.56;100639.05;126304;1099;104274;-80
2021/12/12 04:52:53;;;;;;;30.33;13.17;;;;;;;9.13;94.16;100633.69;126357;1099;104232;-79
2021/12/12 04:55:29;;;;;;;29.13;13.57;;;;;;;9.12;93.45;100642.36;126312;1099;104363;-79
2021/12/12 04:58:11;;;;;;;28.00;13.27;;;;;;;9.06;93.56;100629.00;126355;1099;104169;-79
2021/12/12 05:00:50;;;;;;;28.67;13.40;;;;;;;9.01;93.82;100633.14;126197;1099;104663;-78
2021/12/12 05:03:32;;;;;;;24.77;12.43;;;;;;;8.97;93.24;100633.83;126219;1099;104258;-78
2021/12/12 05:06:09;;;;;;;27.67;12.70;;;;;;;8.94;93.54;100629.38;126265;1099;104207;-80
2021/12/12 05:08:45;;;;;;;26.83;11.90;;;;;;;8.93;93.71;100631.92;126196;1099;104239;-79
2021/12/12 05:11:22;;;;;;;26.70;12.70;;;;;;;8.90;93.74;100637.91;126075;1099;105493;-78
2021/12/12 05:13:57;;;;;;;29.20;13.73;;;;;;;8.89;93.66;100630.87;126095;1099;104162;-78
2021/12/12 05:16:34;;;;;;;25.73;13.80;;;;;;;8.87;93.56;100635.15;126106;1099;104264;-78
2021/12/12 05:19:16;;;;;;;26.25;13.50;;;;;;;8.82;92.49;100639.30;126131;1099;104216;-78
2021/12/12 05:21:52;;;;;;;26.87;13.43;;;;;;;8.79;93.17;100649.62;125890;1099;104380;-79
2021/12/12 05:24:26;;;;;;;28.97;13.77;;;;;;;8.76;93.19;100644.25;126012;1098;104175;-79
2021/12/12 05:27:03;;;;;;;27.53;13.90;;;;;;;8.72;92.35;100637.07;125910;1099;104207;-79
2021/12/12 05:29:38;;;;;;;28.40;13.55;;;;;;;8.70;92.51;100641.35;125937;1099;104163;-78
2021/12/12 05:32:11;;;;;;;25.57;12.47;;;;;;;8.66;92.80;100639.41;125988;1099;104242;-78
2021/12/12 05:34:49;;;;;;;30.57;13.60;;;;;;;8.59;92.87;100646.97;126027;1098;104262;-77
2021/12/12 05:37:22;;;;;;;24.13;11.97;;;;;;;8.56;92.38;100644.22;126196;1098;104213;-78
2021/12/12 05:39:54;;;;;;;28.63;14.17;;;;;;;8.49;92.30;100644.75;126347;1099;104133;-79
2021/12/12 05:42:26;;;;;;;23.50;12.13;;;;;;;8.43;92.59;100645.38;126299;1099;104169;-79
2021/12/12 05:44:59;;;;;;;27.13;13.07;;;;;;;8.37;92.53;100650.28;126270;1099;104268;-79
2021/12/12 05:47:30;;;;;;;27.03;13.70;;;;;;;8.34;92.61;100651.88;126327;1099;104319;-80
2021/12/12 05:50:05;;;;;;;26.23;13.67;;;;;;;8.31;92.38;100660.45;126247;1099;104310;-79
2021/12/12 05:52:39;;;;;;;28.07;13.80;;;;;;;8.27;92.63;100659.42;126251;1099;104753;-79
2021/12/12 05:55:40;;;;;;;26.83;12.97;;;;;;;8.23;92.20;100664.44;126340;1099;104204;-80
2021/12/12 05:58:28;;;;;;;25.17;12.63;;;;;;;8.14;92.07;100666.61;126227;1099;104305;-79
2021/12/12 06:01:06;;;;;;;27.97;13.40;;;;;;;8.12;92.56;100653.47;126252;1099;104195;-79
2021/12/12 06:03:40;;;;;;;25.47;12.73;;;;;;;8.09;92.65;100658.55;126159;1099;104156;-80
2021/12/12 06:06:16;;;;;;;25.60;12.63;;;;;;;8.06;92.44;100658.39;126313;1099;104178;-80
2021/12/12 06:08:49;;;;;;;26.53;13.20;;;;;;;8.04;93.09;100658.31;126327;1099;104150;-81
2021/12/12 06:11:24;;;;;;;25.43;12.80;;;;;;;8.02;93.13;100659.05;126365;1099;104405;-80
2021/12/12 06:13:56;;;;;;;28.90;13.17;;;;;;;7.97;92.95;100647.49;126197;1099;109000;-79
2021/12/12 06:16:30;;;;;;;28.60;13.40;;;;;;;7.94;92.89;100657.80;126318;1099;104143;-79
2021/12/12 06:19:06;;;;;;;28.32;13.68;;;;;;;7.91;92.59;100651.58;126395;1097;104280;-81
2021/12/12 06:21:38;;;;;;;27.05;13.50;;;;;;;7.89;92.70;100663.68;126292;1099;104248;-80
2021/12/12 06:24:12;;;;;;;27.23;13.90;;;;;;;7.89;93.06;100655.84;126229;1099;118948;-80
2021/12/12 06:26:43;;;;;;;26.57;13.62;;;;;;;7.89;93.04;100661.06;126246;1098;104284;-80
2021/12/12 06:29:18;;;;;;;27.80;13.25;;;;;;;7.88;93.11;100658.38;126320;1099;104265;-81
2021/12/12 06:31:55;;;;;;;27.70;12.53;;;;;;;7.87;93.40;100659.22;126344;1099;104163;-80
2021/12/12 06:34:29;;;;;;;26.23;12.57;;;;;;;7.85;93.41;100653.92;126268;1097;104149;-81
2021/12/12 06:37:05;;;;;;;28.47;13.67;;;;;;;7.88;93.19;100664.52;126342;1099;104164;-79
2021/12/12 06:39:37;;;;;;;30.03;13.73;;;;;;;7.91;92.96;100682.05;126322;1099;104188;-79
2021/12/12 06:42:10;;;;;;;27.53;13.07;;;;;;;7.89;92.54;100681.97;126304;1099;104190;-81
2021/12/12 06:44:43;;;;;;;27.97;13.90;;;;;;;7.88;93.12;100684.51;126273;1099;111596;-80
2021/12/12 06:47:18;;;;;;;28.20;14.20;;;;;;;7.87;92.99;100701.91;126315;1099;104159;-80
2021/12/12 06:49:50;;;;;;;29.00;13.27;;;;;;;7.87;92.92;100704.52;126354;1099;104146;-79
2021/12/12 06:52:22;;;;;;;28.73;14.83;;;;;;;7.89;93.05;100730.73;126282;1099;104627;-79
2021/12/12 06:54:55;;;;;;;30.43;15.47;;;;;;;7.89;93.28;100729.00;126213;1099;104240;-79
2021/12/12 06:57:28;;;;;;;30.03;14.37;;;;;;;7.88;92.97;100723.70;126342;1099;101709;-80
2021/12/12 07:00:00;;;;;;;27.60;14.07;;;;;;;7.89;92.93;100704.60;126331;1099;104252;-80
2021/12/12 07:02:31;;;;;;;29.50;15.37;;;;;;;7.86;93.17;100700.11;126337;1099;104405;-82
2021/12/12 07:05:04;;;;;;;26.67;13.43;;;;;;;7.87;92.56;100704.52;126115;1099;104256;-80
2021/12/12 07:07:38;;;;;;;27.53;13.47;;;;;;;7.87;92.73;100704.52;126088;1099;103751;-80
2021/12/12 07:10:13;;;;;;;28.57;13.57;;;;;;;7.89;92.95;100702.88;126338;1099;105177;-79
2021/12/12 07:12:48;;;;;;;30.00;12.93;;;;;;;7.89;92.98;100707.21;126295;1096;104147;-80
2021/12/12 07:15:26;;;;;;;27.73;12.30;;;;;;;7.90;93.05;100698.56;126385;1099;118898;-79
2021/12/12 07:18:00;;;;;;;26.07;12.57;;;;;;;7.91;93.08;100697.72;126288;1099;104156;-81
2021/12/12 07:20:32;;;;;;;27.40;12.68;;;;;;;7.91;92.77;100701.22;126388;1099;104219;-80
2021/12/12 07:23:14;;;;;;;25.17;12.97;;;;;;;7.92;93.12;100692.58;126344;1099;104644;-80
2021/12/12 07:25:47;;;;;;;25.70;12.37;;;;;;;7.95;92.51;100683.08;126248;1099;104156;-80
2021/12/12 07:28:30;;;;;;;27.73;13.63;;;;;;;7.97;93.09;100686.69;126333;1099;104252;-80
2021/12/12 07:31:20;;;;;;;25.47;12.37;;;;;;;7.98;92.77;100673.70;126271;1099;104322;-80
2021/12/12 07:34:00;;;;;;;26.40;12.77;;;;;;;7.97;92.31;100676.23;126243;1099;104200;-81
2021/12/12 07:36:36;;;;;;;26.20;12.50;;;;;;;7.97;92.62;100679.73;126311;1099;104150;-79
2021/12/12 07:39:14;;;;;;;24.60;12.47;;;;;;;7.99;92.34;100671.97;126219;1099;104178;-80
2021/12/12 07:42:03;;;;;;;23.03;11.70;;;;;;;8.02;93.05;100674.73;126348;1097;104314;-79
2021/12/12 07:44:38;;;;;;;28.97;12.40;;;;;;;8.02;92.71;100677.34;126268;1098;104242;-81
2021/12/12 07:47:13;;;;;;;26.30;12.73;;;;;;;7.98;92.57;100676.31;126341;1099;104248;-80
2021/12/12 07:49:47;;;;;;;26.03;12.93;;;;;;;7.98;92.86;100670.17;126317;1099;104163;-80
2021/12/12 07:52:23;;;;;;;24.80;12.27;;;;;;;7.99;92.50;100672.86;126363;1098;104157;-80
2021/12/12 07:54:56;;;;;;;26.00;12.50;;;;;;;8.01;92.94;100676.47;126270;1099;104284;-80
2021/12/12 07:57:29;;;;;;;26.42;12.23;;;;;;;8.02;92.97;100674.73;126360;1099;105300;-80
2021/12/12 08:00:01;;;;;;;26.27;12.90;;;;;;;8.00;92.53;100677.27;126360;1098;104204;-79
2021/12/12 08:02:33;;;;;;;24.23;12.53;;;;;;;7.97;92.58;100669.28;126197;1099;104235;-81
2021/12/12 08:05:08;;;;;;;25.70;12.23;;;;;;;7.98;92.56;100676.31;126311;1099;105577;-81
2021/12/12 08:07:46;;;;;;;22.30;11.47;;;;;;;7.99;92.87;100672.86;126335;1099;104332;-80
2021/12/12 08:10:18;;;;;;;23.30;11.60;;;;;;;7.99;92.51;100670.24;126303;1099;104162;-80
2021/12/12 08:12:57;;;;;;;25.77;12.07;;;;;;;8.01;92.76;100672.94;126388;1099;104178;-79
2021/12/12 08:15:33;;;;;;;24.70;11.70;;;;;;;8.02;92.34;100674.73;126149;1099;104271;-79
2021/12/12 08:18:07;;;;;;;25.17;12.73;;;;;;;8.03;92.34;100690.48;126218;1099;104348;-78
2021/12/12 08:20:39;;;;;;;26.63;13.03;;;;;;;8.03;92.65;100700.06;126218;1098;104163;-80
2021/12/12 08:23:22;;;;;;;23.73;12.10;;;;;;;8.03;92.95;100715.73;126198;1099;104187;-79
2021/12/12 08:25:55;;;;;;;24.30;11.33;;;;;;;8.03;93.11;100749.71;126169;1099;104147;-79
2021/12/12 08:28:47;;;;;;;23.43;11.70;;;;;;;8.02;93.10;100751.41;126171;1099;104296;-79
2021/12/12 08:31:24;;;;;;;21.80;11.00;;;;;;;8.05;92.95;100734.99;126258;1099;104223;-80
2021/12/12 08:34:11;;;;;;;24.63;11.47;;;;;;;8.09;92.45;100747.41;126207;1099;104306;-79
2021/12/12 08:36:54;;;;;;;23.77;11.13;;;;;;;8.10;92.76;100744.87;126109;1099;104325;-80
2021/12/12 08:39:31;;;;;;;24.03;11.50;;;;;;;8.13;93.13;100737.98;126020;1099;104156;-80
2021/12/12 08:42:10;;;;;;;23.77;10.83;;;;;;;8.16;92.38;100744.25;125133;1102;102059;-81
2021/12/12 08:44:42;;;;;;;21.33;9.33;;;;;;;8.19;92.23;100733.95;125325;1102;104390;-79
2021/12/12 08:47:33;;;;;;;25.40;11.83;;;;;;;8.23;92.49;100740.25;125224;1101;119156;-79
2021/12/12 08:50:16;;;;;;;23.60;11.17;;;;;;;8.26;92.68;100722.09;125223;1102;104338;-80
2021/12/12 08:52:53;;;;;;;22.60;10.50;;;;;;;8.30;92.83;100715.29;125162;1099;104185;-80
2021/12/12 08:55:49;;;;;;;23.97;10.97;;;;;;;8.33;92.26;100715.44;125884;1099;104587;-80
2021/12/12 08:58:23;;;;;;;26.57;10.53;;;;;;;8.32;91.97;100711.02;126191;1099;104163;-79
2021/12/12 09:00:57;;;;;;;24.50;11.38;;;;;;;8.32;92.00;100704.09;126239;1099;104640;-79
2021/12/12 09:03:34;;;;;;;;;;;;;;;8.33;92.39;100731.13;126226;1099;104596;-79
2021/12/12 09:06:13;;;;;;;23.73;11.47;;;;;;;8.31;92.08;100723.20;126215;1099;104354;-80
2021/12/12 09:08:52;;;;;;;26.43;11.93;;;;;;;8.30;92.56;100730.97;126175;1099;104147;-80
2021/12/12 09:11:30;;;;;;;25.73;11.73;;;;;;;8.28;92.37;100731.78;126220;1099;104254;-79
2021/12/12 09:14:18;;;;;;;26.17;11.83;;;;;;;8.26;92.72;100738.67;126258;1099;104201;-80
2021/12/12 09:16:56;;;;;;;26.23;11.57;;;;;;;8.26;92.42;100727.33;126270;1099;104175;-79
2021/12/12 09:19:35;;;;;;;25.93;12.80;;;;;;;8.28;92.44;100723.05;126373;1097;104149;-80
2021/12/12 09:22:23;;;;;;;26.63;13.10;;;;;;;8.27;92.11;100716.02;126314;1099;104153;-80
2021/12/12 09:25:04;;;;;;;26.80;13.27;;;;;;;8.26;92.60;100714.25;126320;1099;104150;-79
2021/12/12 09:27:47;;;;;;;31.27;14.00;;;;;;;8.22;92.52;100715.80;126326;1098;104255;-79
2021/12/12 09:30:22;;;;;;;28.80;13.30;;;;;;;8.23;92.56;100709.77;126299;1098;104258;-80
2021/12/12 09:33:19;;;;;;;29.57;13.97;;;;;;;8.19;92.39;100702.58;126305;1099;104252;-79
2021/12/12 09:35:55;;;;;;;30.57;14.93;;;;;;;8.18;92.53;100703.42;126292;1098;104227;-79
2021/12/12 09:38:30;;;;;;;31.17;15.30;;;;;;;8.16;91.98;100696.31;126281;1099;104213;-80
2021/12/12 09:41:23;;;;;;;33.40;15.30;;;;;;;8.13;92.24;100696.16;126331;1099;104249;-79
2021/12/12 09:44:19;;;;;;;28.80;14.40;;;;;;;8.13;92.25;100681.37;126292;1099;104255;-79
2021/12/12 09:47:25;;;;;;;33.70;15.27;;;;;;;8.10;92.44;100687.36;126302;1096;104185;-81
2021/12/12 09:53:53;;;;;;;28.50;14.25;;;;;;;8.09;92.25;100682.06;126375;1097;104227;-79
2021/12/12 09:56:44;;;;;;;30.13;14.17;;;;;;;7.96;92.68;100674.44;126283;1099;105222;-79
2021/12/12 10:00:01;;;;;;;29.43;14.30;;;;;;;7.99;92.56;100674.59;126173;1099;108642;-79
2021/12/12 10:03:06;;;;;;;28.60;13.30;;;;;;;7.95;92.62;100670.94;126296;1099;104146;-80
2021/12/12 10:05:55;;;;;;;28.10;13.37;;;;;;;7.94;92.85;100676.09;126194;1098;104404;-79
2021/12/12 10:08:43;;;;;;;32.47;14.70;;;;;;;7.94;92.69;100679.59;125412;1099;104310;-81
2021/12/12 10:11:26;;;;;;;29.33;14.20;;;;;;;7.95;92.52;100670.94;126149;1099;104383;-79
2021/12/12 10:14:13;;;;;;;26.73;12.07;;;;;;;7.94;92.94;100663.02;126156;1099;104425;-78
2021/12/12 10:17:11;;;;;;;28.20;14.27;;;;;;;7.90;92.72;100672.44;125458;1099;104152;-79
2021/12/12 10:19:56;;;;;;;31.37;14.43;;;;;;;7.88;92.86;100676.67;126001;1099;111406;-79
2021/12/12 10:22:45;;;;;;;28.37;14.07;;;;;;;7.88;92.48;100664.52;126068;1099;104283;-80
2021/12/12 10:25:23;;;;;;;29.20;15.10;;;;;;;7.91;93.03;100664.64;126071;1099;104220;-79
2021/12/12 10:31:05;;;;;;;29.57;14.87;;;;;;;7.88;92.73;100660.99;125212;1102;104334;-81
2021/12/12 10:33:46;;;;;;;28.77;14.43;;;;;;;7.86;93.08;100650.47;125237;1102;104271;-79
2021/12/12 10:36:23;;;;;;;27.93;14.73;;;;;;;7.86;92.82;100647.85;125279;1102;104309;-81
2021/12/12 10:39:02;;;;;;;27.60;13.40;;;;;;;7.85;92.83;100643.47;125314;1102;104165;-81
2021/12/12 10:41:47;;;;;;;27.30;14.37;;;;;;;7.81;92.34;100654.58;125210;1102;104309;-79
2021/12/12 10:44:23;;;;;;;26.73;15.00;;;;;;;7.81;92.87;100649.36;125283;1102;104156;-80
2021/12/12 10:47:12;;;;;;;28.40;15.50;;;;;;;7.81;93.07;100641.52;126197;1099;104357;-81
2021/12/12 10:49:58;;;;;;;30.50;16.20;;;;;;;7.83;92.90;100637.25;126152;1099;104261;-80
2021/12/12 10:52:38;;;;;;;29.90;15.70;;;;;;;7.82;92.72;100638.09;126075;1099;104437;-80
2021/12/12 10:55:16;;;;;;;30.47;16.13;;;;;;;7.82;92.92;100630.26;126209;1099;104441;-81
2021/12/12 10:58:00;;;;;;;28.33;15.40;;;;;;;7.85;92.64;100635.63;126211;1099;104798;-80
2021/12/12 11:00:43;;;;;;;28.00;16.13;;;;;;;7.85;92.91;100627.80;126202;1099;104162;-80
2021/12/12 11:03:20;;;;;;;28.00;15.67;;;;;;;7.85;92.73;100633.02;126178;1099;104332;-79
2021/12/12 11:06:07;;;;;;;28.70;15.37;;;;;;;7.83;93.10;100632.03;126248;1098;104327;-82
2021/12/12 11:09:00;;;;;;;26.30;14.63;;;;;;;7.83;93.08;100629.41;126246;1099;104335;-80
2021/12/12 11:11:36;;;;;;;28.20;14.80;;;;;;;7.78;92.56;100636.14;126296;1099;104207;-78
2021/12/12 11:14:21;;;;;;;28.60;15.30;;;;;;;7.76;92.62;100634.27;126248;1099;104165;-80
2021/12/12 11:16:57;;;;;;;25.93;13.80;;;;;;;7.73;92.40;100635.91;126295;1099;104255;-79
2021/12/12 11:19:36;;;;;;;28.23;14.37;;;;;;;7.71;92.58;100641.88;126264;1099;104181;-80
2021/12/12 11:22:11;;;;;;;27.07;14.23;;;;;;;7.70;93.11;100633.16;126252;1099;103868;-80
2021/12/12 11:24:46;;;;;;;27.23;13.97;;;;;;;7.68;92.74;100644.33;126381;1099;104287;-80
2021/12/12 11:27:22;;;;;;;25.87;12.60;;;;;;;7.66;92.87;100638.15;126324;1099;104178;-79
2021/12/12 11:30:05;;;;;;;25.07;12.83;;;;;;;7.62;92.73;100652.78;125308;1099;104156;-82
2021/12/12 11:32:37;;;;;;;25.83;13.47;;;;;;;7.59;92.47;100642.18;125276;1099;104158;-79
2021/12/12 11:35:12;;;;;;;25.17;12.97;;;;;;;7.55;92.62;100648.06;125281;1100;104277;-81
2021/12/12 11:37:52;;;;;;;27.73;12.80;;;;;;;7.48;93.03;100644.25;125324;1099;104406;-79
2021/12/12 11:40:27;;;;;;;24.65;12.70;;;;;;;7.46;92.56;100634.53;125207;1099;104287;-82
2021/12/12 11:43:11;;;;;;;25.37;11.97;;;;;;;7.44;93.05;100625.74;125274;1099;104312;-80
2021/12/12 11:45:45;;;;;;;25.17;13.15;;;;;;;7.41;92.68;100633.42;125332;1099;104297;-82
2021/12/12 11:48:22;;;;;;;24.55;13.20;;;;;;;7.41;92.80;100639.53;125265;1099;104685;-80
2021/12/12 11:50:58;;;;;;;23.80;11.93;;;;;;;7.40;93.07;100626.39;125346;1099;104159;-79
2021/12/12 11:53:42;;;;;;;24.37;11.87;;;;;;;7.35;92.56;100629.69;125828;1099;104478;-80
2021/12/12 11:56:17;;;;;;;24.55;11.45;;;;;;;7.28;92.73;100627.58;125301;1102;104325;-78
2021/12/12 11:59:03;;;;;;;23.63;11.77;;;;;;;7.26;93.07;100623.08;125306;1102;104390;-81
2021/12/12 12:01:44;;;;;;;23.40;11.93;;;;;;;7.23;92.66;100616.02;125681;1099;104205;-79
2021/12/12 12:04:38;;;;;;;26.03;12.50;;;;;;;7.22;93.43;100618.55;125429;1099;104475;-81
2021/12/12 12:07:18;;;;;;;25.60;11.23;;;;;;;7.18;92.93;100617.47;126187;1099;104159;-81
2021/12/12 12:10:04;;;;;;;21.03;10.37;;;;;;;7.11;93.25;100612.77;126197;1099;104134;-79